sensor_id;sensor_type;location;lat;lon;timestamp;P1;durP1;ratioP1;P2;durP2;ratioP2
67363;SDS011;54250;45.572;38.086;2023-08-01T00:01:32;5.47;;;2.45;;
67363;SDS011;54250;45.572;38.086;2023-08-01T00:03:58;8.27;;;3.05;;
67363;SDS011;54250;45.572;38.086;2023-08-01T00:06:24;4.18;;;2.40;;
67363;SDS011;54250;45.572;38.086;2023-08-01T00:08:50;6.50;;;2.60;;
67363;SDS011;54250;45.572;38.086;2023-08-01T00:11:17;5.10;;;2.67;;
67363;SDS011;54250;45.572;38.086;2023-08-01T00:13:42;12.02;;;2.50;;
67363;SDS011;54250;45.572;38.086;2023-08-01T00:16:09;9.02;;;2.50;;
67363;SDS011;54250;45.572;38.086;2023-08-01T00:18:35;10.00;;;2.70;;
67363;SDS011;54250;45.572;38.086;2023-08-01T00:21:01;10.40;;;2.67;;
67363;SDS011;54250;45.572;38.086;2023-08-01T00:23:28;3.88;;;2.40;;
67363;SDS011;54250;45.572;38.086;2023-08-01T00:25:54;3.42;;;2.40;;
67363;SDS011;54250;45.572;38.086;2023-08-01T00:28:21;4.75;;;2.55;;
67363;SDS011;54250;45.572;38.086;2023-08-01T00:30:48;9.85;;;2.50;;
67363;SDS011;54250;45.572;38.086;2023-08-01T00:33:14;4.07;;;2.38;;
67363;SDS011;54250;45.572;38.086;2023-08-01T00:35:40;6.88;;;2.85;;
67363;SDS011;54250;45.572;38.086;2023-08-01T00:38:06;5.55;;;2.53;;
67363;SDS011;54250;45.572;38.086;2023-08-01T00:40:33;11.43;;;2.90;;
67363;SDS011;54250;45.572;38.086;2023-08-01T00:42:59;4.13;;;2.30;;
67363;SDS011;54250;45.572;38.086;2023-08-01T00:45:26;4.43;;;2.47;;
67363;SDS011;54250;45.572;38.086;2023-08-01T00:47:53;4.60;;;2.72;;
67363;SDS011;54250;45.572;38.086;2023-08-01T00:50:19;4.13;;;3.00;;
67363;SDS011;54250;45.572;38.086;2023-08-01T00:52:47;4.28;;;2.63;;
67363;SDS011;54250;45.572;38.086;2023-08-01T00:55:14;7.40;;;2.70;;
67363;SDS011;54250;45.572;38.086;2023-08-01T00:57:41;4.90;;;2.22;;
67363;SDS011;54250;45.572;38.086;2023-08-01T01:00:08;8.27;;;2.35;;
67363;SDS011;54250;45.572;38.086;2023-08-01T01:02:35;5.55;;;2.53;;
67363;SDS011;54250;45.572;38.086;2023-08-01T01:05:01;10.02;;;2.70;;
67363;SDS011;54250;45.572;38.086;2023-08-01T01:07:29;7.00;;;2.45;;
67363;SDS011;54250;45.572;38.086;2023-08-01T01:09:56;7.70;;;2.75;;
67363;SDS011;54250;45.572;38.086;2023-08-01T01:12:23;10.20;;;2.50;;
67363;SDS011;54250;45.572;38.086;2023-08-01T01:14:49;7.35;;;2.53;;
67363;SDS011;54250;45.572;38.086;2023-08-01T01:17:15;4.60;;;2.60;;
67363;SDS011;54250;45.572;38.086;2023-08-01T01:19:41;8.35;;;2.28;;
67363;SDS011;54250;45.572;38.086;2023-08-01T01:22:07;3.70;;;2.22;;
67363;SDS011;54250;45.572;38.086;2023-08-01T01:24:35;8.25;;;2.75;;
67363;SDS011;54250;45.572;38.086;2023-08-01T01:27:03;13.43;;;2.90;;
67363;SDS011;54250;45.572;38.086;2023-08-01T01:29:31;3.45;;;2.25;;
67363;SDS011;54250;45.572;38.086;2023-08-01T01:32:02;6.75;;;2.35;;
67363;SDS011;54250;45.572;38.086;2023-08-01T01:34:28;13.20;;;2.88;;
67363;SDS011;54250;45.572;38.086;2023-08-01T01:36:55;7.18;;;2.55;;
67363;SDS011;54250;45.572;38.086;2023-08-01T01:39:21;8.15;;;2.30;;
67363;SDS011;54250;45.572;38.086;2023-08-01T01:41:47;9.07;;;2.58;;
67363;SDS011;54250;45.572;38.086;2023-08-01T01:44:13;5.15;;;2.10;;
67363;SDS011;54250;45.572;38.086;2023-08-01T01:46:39;8.90;;;2.80;;
67363;SDS011;54250;45.572;38.086;2023-08-01T01:49:05;9.15;;;2.70;;
67363;SDS011;54250;45.572;38.086;2023-08-01T01:51:31;6.32;;;2.80;;
67363;SDS011;54250;45.572;38.086;2023-08-01T01:53:57;8.32;;;2.80;;
67363;SDS011;54250;45.572;38.086;2023-08-01T01:56:23;11.18;;;2.55;;
67363;SDS011;54250;45.572;38.086;2023-08-01T01:58:50;4.70;;;2.40;;
67363;SDS011;54250;45.572;38.086;2023-08-01T02:01:15;4.78;;;2.50;;
67363;SDS011;54250;45.572;38.086;2023-08-01T02:03:41;10.27;;;2.60;;
67363;SDS011;54250;45.572;38.086;2023-08-01T02:06:07;7.80;;;2.78;;
67363;SDS011;54250;45.572;38.086;2023-08-01T02:08:33;7.15;;;2.67;;
67363;SDS011;54250;45.572;38.086;2023-08-01T02:11:01;8.57;;;3.13;;
67363;SDS011;54250;45.572;38.086;2023-08-01T02:13:27;5.85;;;3.33;;
67363;SDS011;54250;45.572;38.086;2023-08-01T02:15:54;4.90;;;2.70;;
67363;SDS011;54250;45.572;38.086;2023-08-01T02:18:20;4.30;;;2.65;;
67363;SDS011;54250;45.572;38.086;2023-08-01T02:20:46;4.68;;;2.50;;
67363;SDS011;54250;45.572;38.086;2023-08-01T02:23:12;7.47;;;2.83;;
67363;SDS011;54250;45.572;38.086;2023-08-01T02:25:41;5.18;;;2.90;;
67363;SDS011;54250;45.572;38.086;2023-08-01T02:28:08;5.38;;;2.80;;
67363;SDS011;54250;45.572;38.086;2023-08-01T02:30:34;7.85;;;2.90;;
67363;SDS011;54250;45.572;38.086;2023-08-01T02:33:01;8.40;;;3.47;;
67363;SDS011;54250;45.572;38.086;2023-08-01T02:35:28;15.48;;;3.10;;
67363;SDS011;54250;45.572;38.086;2023-08-01T02:37:54;6.13;;;3.13;;
67363;SDS011;54250;45.572;38.086;2023-08-01T02:40:21;6.05;;;3.45;;
67363;SDS011;54250;45.572;38.086;2023-08-01T02:42:47;13.63;;;3.20;;
67363;SDS011;54250;45.572;38.086;2023-08-01T02:45:14;8.30;;;3.13;;
67363;SDS011;54250;45.572;38.086;2023-08-01T02:47:40;8.93;;;2.60;;
67363;SDS011;54250;45.572;38.086;2023-08-01T02:50:06;8.65;;;2.97;;
67363;SDS011;54250;45.572;38.086;2023-08-01T02:52:32;6.35;;;3.03;;
67363;SDS011;54250;45.572;38.086;2023-08-01T02:54:58;17.17;;;3.45;;
67363;SDS011;54250;45.572;38.086;2023-08-01T02:57:24;11.32;;;2.88;;
67363;SDS011;54250;45.572;38.086;2023-08-01T02:59:50;9.15;;;3.50;;
67363;SDS011;54250;45.572;38.086;2023-08-01T03:02:16;15.57;;;3.55;;
67363;SDS011;54250;45.572;38.086;2023-08-01T03:04:42;10.73;;;3.30;;
67363;SDS011;54250;45.572;38.086;2023-08-01T03:07:08;15.43;;;3.70;;
67363;SDS011;54250;45.572;38.086;2023-08-01T03:09:34;7.65;;;3.20;;
67363;SDS011;54250;45.572;38.086;2023-08-01T03:12:00;7.43;;;3.40;;
67363;SDS011;54250;45.572;38.086;2023-08-01T03:14:26;7.28;;;3.00;;
67363;SDS011;54250;45.572;38.086;2023-08-01T03:16:52;14.93;;;3.58;;
67363;SDS011;54250;45.572;38.086;2023-08-01T03:19:18;9.57;;;3.78;;
67363;SDS011;54250;45.572;38.086;2023-08-01T03:21:44;15.98;;;3.92;;
67363;SDS011;54250;45.572;38.086;2023-08-01T03:24:10;9.05;;;3.67;;
67363;SDS011;54250;45.572;38.086;2023-08-01T03:26:36;10.25;;;3.50;;
67363;SDS011;54250;45.572;38.086;2023-08-01T03:29:02;11.77;;;2.97;;
67363;SDS011;54250;45.572;38.086;2023-08-01T03:31:28;18.02;;;3.22;;
67363;SDS011;54250;45.572;38.086;2023-08-01T03:33:55;5.20;;;2.75;;
67363;SDS011;54250;45.572;38.086;2023-08-01T03:36:24;15.90;;;3.45;;
67363;SDS011;54250;45.572;38.086;2023-08-01T03:38:50;8.65;;;3.67;;
67363;SDS011;54250;45.572;38.086;2023-08-01T03:41:16;7.78;;;4.40;;
67363;SDS011;54250;45.572;38.086;2023-08-01T03:43:42;16.67;;;5.32;;
67363;SDS011;54250;45.572;38.086;2023-08-01T03:46:08;14.82;;;5.60;;
67363;SDS011;54250;45.572;38.086;2023-08-01T03:48:35;42.28;;;12.10;;
67363;SDS011;54250;45.572;38.086;2023-08-01T03:51:00;37.42;;;13.63;;
67363;SDS011;54250;45.572;38.086;2023-08-01T03:53:29;30.95;;;11.93;;
67363;SDS011;54250;45.572;38.086;2023-08-01T03:55:55;19.58;;;7.03;;
67363;SDS011;54250;45.572;38.086;2023-08-01T03:58:21;26.80;;;7.95;;
67363;SDS011;54250;45.572;38.086;2023-08-01T04:00:47;18.50;;;6.93;;
67363;SDS011;54250;45.572;38.086;2023-08-01T04:03:13;17.77;;;4.50;;
67363;SDS011;54250;45.572;38.086;2023-08-01T04:05:39;8.90;;;4.80;;
67363;SDS011;54250;45.572;38.086;2023-08-01T04:08:06;7.28;;;3.45;;
67363;SDS011;54250;45.572;38.086;2023-08-01T04:10:32;9.20;;;3.22;;
67363;SDS011;54250;45.572;38.086;2023-08-01T04:12:58;13.80;;;3.45;;
67363;SDS011;54250;45.572;38.086;2023-08-01T04:15:24;14.02;;;3.80;;
67363;SDS011;54250;45.572;38.086;2023-08-01T04:17:50;13.27;;;3.60;;
67363;SDS011;54250;45.572;38.086;2023-08-01T04:20:16;10.80;;;3.58;;
67363;SDS011;54250;45.572;38.086;2023-08-01T04:22:42;13.18;;;3.80;;
67363;SDS011;54250;45.572;38.086;2023-08-01T04:25:08;12.40;;;3.60;;
67363;SDS011;54250;45.572;38.086;2023-08-01T04:27:34;12.43;;;3.35;;
67363;SDS011;54250;45.572;38.086;2023-08-01T04:30:00;9.23;;;3.30;;
67363;SDS011;54250;45.572;38.086;2023-08-01T04:32:26;6.35;;;3.55;;
67363;SDS011;54250;45.572;38.086;2023-08-01T04:34:52;18.20;;;3.75;;
67363;SDS011;54250;45.572;38.086;2023-08-01T04:37:18;15.05;;;3.47;;
67363;SDS011;54250;45.572;38.086;2023-08-01T04:39:47;14.80;;;3.55;;
67363;SDS011;54250;45.572;38.086;2023-08-01T04:42:13;15.93;;;3.55;;
67363;SDS011;54250;45.572;38.086;2023-08-01T04:44:39;9.88;;;3.45;;
67363;SDS011;54250;45.572;38.086;2023-08-01T04:47:05;8.65;;;3.50;;
67363;SDS011;54250;45.572;38.086;2023-08-01T04:49:31;16.25;;;3.67;;
67363;SDS011;54250;45.572;38.086;2023-08-01T04:51:58;16.77;;;3.60;;
67363;SDS011;54250;45.572;38.086;2023-08-01T04:54:24;9.25;;;3.47;;
67363;SDS011;54250;45.572;38.086;2023-08-01T04:56:49;17.20;;;3.88;;
67363;SDS011;54250;45.572;38.086;2023-08-01T04:59:15;10.30;;;3.70;;
67363;SDS011;54250;45.572;38.086;2023-08-01T05:01:41;15.25;;;5.57;;
67363;SDS011;54250;45.572;38.086;2023-08-01T05:04:07;11.10;;;3.63;;
67363;SDS011;54250;45.572;38.086;2023-08-01T05:06:33;10.90;;;3.92;;
67363;SDS011;54250;45.572;38.086;2023-08-01T05:09:00;14.65;;;3.95;;
67363;SDS011;54250;45.572;38.086;2023-08-01T05:11:26;15.75;;;3.88;;
67363;SDS011;54250;45.572;38.086;2023-08-01T05:13:52;7.50;;;3.45;;
67363;SDS011;54250;45.572;38.086;2023-08-01T05:16:17;11.02;;;3.10;;
67363;SDS011;54250;45.572;38.086;2023-08-01T05:18:44;11.82;;;4.38;;
67363;SDS011;54250;45.572;38.086;2023-08-01T05:21:10;12.57;;;3.80;;
67363;SDS011;54250;45.572;38.086;2023-08-01T05:23:36;12.68;;;3.28;;
67363;SDS011;54250;45.572;38.086;2023-08-01T05:26:01;11.32;;;3.72;;
67363;SDS011;54250;45.572;38.086;2023-08-01T05:28:28;11.80;;;4.32;;
67363;SDS011;54250;45.572;38.086;2023-08-01T05:30:54;15.18;;;4.20;;
67363;SDS011;54250;45.572;38.086;2023-08-01T05:33:19;15.35;;;3.78;;
67363;SDS011;54250;45.572;38.086;2023-08-01T05:35:45;15.90;;;3.67;;
67363;SDS011;54250;45.572;38.086;2023-08-01T05:38:11;11.32;;;3.55;;
67363;SDS011;54250;45.572;38.086;2023-08-01T05:40:37;14.43;;;3.67;;
67363;SDS011;54250;45.572;38.086;2023-08-01T05:43:05;13.93;;;3.95;;
67363;SDS011;54250;45.572;38.086;2023-08-01T05:45:36;18.52;;;4.72;;
67363;SDS011;54250;45.572;38.086;2023-08-01T05:48:02;22.02;;;3.80;;
67363;SDS011;54250;45.572;38.086;2023-08-01T05:50:28;14.02;;;3.47;;
67363;SDS011;54250;45.572;38.086;2023-08-01T05:52:54;12.48;;;4.00;;
67363;SDS011;54250;45.572;38.086;2023-08-01T05:55:20;18.20;;;5.20;;
67363;SDS011;54250;45.572;38.086;2023-08-01T05:57:46;12.65;;;5.63;;
67363;SDS011;54250;45.572;38.086;2023-08-01T06:00:14;19.00;;;5.72;;
67363;SDS011;54250;45.572;38.086;2023-08-01T06:02:40;12.18;;;6.03;;
67363;SDS011;54250;45.572;38.086;2023-08-01T06:05:06;11.25;;;5.15;;
67363;SDS011;54250;45.572;38.086;2023-08-01T06:07:32;22.92;;;4.85;;
67363;SDS011;54250;45.572;38.086;2023-08-01T06:09:58;14.25;;;4.20;;
67363;SDS011;54250;45.572;38.086;2023-08-01T06:12:24;12.30;;;4.13;;
67363;SDS011;54250;45.572;38.086;2023-08-01T06:14:50;10.82;;;3.88;;
67363;SDS011;54250;45.572;38.086;2023-08-01T06:17:16;14.73;;;3.65;;
67363;SDS011;54250;45.572;38.086;2023-08-01T06:19:42;10.80;;;3.80;;
67363;SDS011;54250;45.572;38.086;2023-08-01T06:22:08;11.25;;;3.60;;
67363;SDS011;54250;45.572;38.086;2023-08-01T06:24:34;9.95;;;3.30;;
67363;SDS011;54250;45.572;38.086;2023-08-01T06:27:00;16.13;;;3.33;;
67363;SDS011;54250;45.572;38.086;2023-08-01T06:29:26;15.05;;;3.47;;
67363;SDS011;54250;45.572;38.086;2023-08-01T06:31:52;18.92;;;3.75;;
67363;SDS011;54250;45.572;38.086;2023-08-01T06:34:17;9.30;;;2.90;;
67363;SDS011;54250;45.572;38.086;2023-08-01T06:36:43;7.20;;;3.35;;
67363;SDS011;54250;45.572;38.086;2023-08-01T06:39:09;12.43;;;3.10;;
67363;SDS011;54250;45.572;38.086;2023-08-01T06:41:36;11.65;;;3.60;;
67363;SDS011;54250;45.572;38.086;2023-08-01T06:44:02;11.85;;;3.30;;
67363;SDS011;54250;45.572;38.086;2023-08-01T06:46:28;12.43;;;3.67;;
67363;SDS011;54250;45.572;38.086;2023-08-01T06:48:53;15.60;;;3.55;;
67363;SDS011;54250;45.572;38.086;2023-08-01T06:51:19;10.80;;;3.05;;
67363;SDS011;54250;45.572;38.086;2023-08-01T06:53:46;13.73;;;3.85;;
67363;SDS011;54250;45.572;38.086;2023-08-01T06:56:12;21.45;;;3.80;;
67363;SDS011;54250;45.572;38.086;2023-08-01T06:58:38;9.82;;;3.80;;
67363;SDS011;54250;45.572;38.086;2023-08-01T07:01:04;11.52;;;3.42;;
67363;SDS011;54250;45.572;38.086;2023-08-01T07:03:30;13.20;;;3.65;;
67363;SDS011;54250;45.572;38.086;2023-08-01T07:05:55;18.58;;;3.67;;
67363;SDS011;54250;45.572;38.086;2023-08-01T07:08:21;13.70;;;3.95;;
67363;SDS011;54250;45.572;38.086;2023-08-01T07:10:48;20.02;;;4.20;;
67363;SDS011;54250;45.572;38.086;2023-08-01T07:13:13;18.88;;;3.88;;
67363;SDS011;54250;45.572;38.086;2023-08-01T07:15:41;13.82;;;4.20;;
67363;SDS011;54250;45.572;38.086;2023-08-01T07:18:07;29.00;;;4.43;;
67363;SDS011;54250;45.572;38.086;2023-08-01T07:20:33;14.90;;;3.97;;
67363;SDS011;54250;45.572;38.086;2023-08-01T07:22:59;18.98;;;3.63;;
67363;SDS011;54250;45.572;38.086;2023-08-01T07:25:25;19.60;;;3.70;;
67363;SDS011;54250;45.572;38.086;2023-08-01T07:27:51;16.08;;;3.90;;
67363;SDS011;54250;45.572;38.086;2023-08-01T07:30:17;17.20;;;3.88;;
67363;SDS011;54250;45.572;38.086;2023-08-01T07:32:43;15.90;;;4.10;;
67363;SDS011;54250;45.572;38.086;2023-08-01T07:35:09;12.02;;;3.88;;
67363;SDS011;54250;45.572;38.086;2023-08-01T07:37:35;16.55;;;4.18;;
67363;SDS011;54250;45.572;38.086;2023-08-01T07:40:04;9.65;;;3.50;;
67363;SDS011;54250;45.572;38.086;2023-08-01T07:42:33;11.40;;;3.97;;
67363;SDS011;54250;45.572;38.086;2023-08-01T07:44:59;19.80;;;3.63;;
67363;SDS011;54250;45.572;38.086;2023-08-01T07:47:25;16.42;;;3.72;;
67363;SDS011;54250;45.572;38.086;2023-08-01T07:49:52;20.55;;;3.58;;
67363;SDS011;54250;45.572;38.086;2023-08-01T07:52:18;12.98;;;3.30;;
67363;SDS011;54250;45.572;38.086;2023-08-01T07:54:44;21.85;;;4.28;;
67363;SDS011;54250;45.572;38.086;2023-08-01T07:57:10;13.27;;;4.00;;
67363;SDS011;54250;45.572;38.086;2023-08-01T07:59:36;16.38;;;4.00;;
67363;SDS011;54250;45.572;38.086;2023-08-01T08:02:02;15.95;;;3.95;;
67363;SDS011;54250;45.572;38.086;2023-08-01T08:15:27;15.30;;;4.50;;
67363;SDS011;54250;45.572;38.086;2023-08-01T08:17:56;13.15;;;4.05;;
67363;SDS011;54250;45.572;38.086;2023-08-01T08:20:22;12.85;;;3.35;;
67363;SDS011;54250;45.572;38.086;2023-08-01T08:22:48;17.98;;;3.67;;
67363;SDS011;54250;45.572;38.086;2023-08-01T08:25:13;22.63;;;3.67;;
67363;SDS011;54250;45.572;38.086;2023-08-01T08:27:39;14.10;;;3.58;;
67363;SDS011;54250;45.572;38.086;2023-08-01T08:30:05;18.10;;;4.05;;
67363;SDS011;54250;45.572;38.086;2023-08-01T08:32:32;15.32;;;3.78;;
67363;SDS011;54250;45.572;38.086;2023-08-01T08:34:58;7.80;;;3.13;;
67363;SDS011;54250;45.572;38.086;2023-08-01T08:37:24;10.07;;;3.17;;
67363;SDS011;54250;45.572;38.086;2023-08-01T08:39:50;12.63;;;3.22;;
67363;SDS011;54250;45.572;38.086;2023-08-01T08:42:17;6.60;;;3.00;;
67363;SDS011;54250;45.572;38.086;2023-08-01T08:44:44;13.65;;;3.30;;
67363;SDS011;54250;45.572;38.086;2023-08-01T08:47:15;15.35;;;3.90;;
67363;SDS011;54250;45.572;38.086;2023-08-01T08:49:44;9.95;;;3.67;;
67363;SDS011;54250;45.572;38.086;2023-08-01T08:52:11;11.40;;;3.92;;
67363;SDS011;54250;45.572;38.086;2023-08-01T08:54:37;11.75;;;3.63;;
67363;SDS011;54250;45.572;38.086;2023-08-01T08:57:05;22.30;;;4.00;;
67363;SDS011;54250;45.572;38.086;2023-08-01T08:59:34;23.92;;;3.90;;
67363;SDS011;54250;45.572;38.086;2023-08-01T09:02:05;10.75;;;3.85;;
67363;SDS011;54250;45.572;38.086;2023-08-01T09:04:31;17.95;;;4.53;;
67363;SDS011;54250;45.572;38.086;2023-08-01T09:06:58;5.72;;;3.13;;
67363;SDS011;54250;45.572;38.086;2023-08-01T09:09:28;17.88;;;4.35;;
67363;SDS011;54250;45.572;38.086;2023-08-01T09:11:54;30.85;;;6.60;;
67363;SDS011;54250;45.572;38.086;2023-08-01T09:14:21;28.42;;;9.65;;
67363;SDS011;54250;45.572;38.086;2023-08-01T09:16:48;22.38;;;8.68;;
67363;SDS011;54250;45.572;38.086;2023-08-01T09:19:21;30.60;;;8.10;;
67363;SDS011;54250;45.572;38.086;2023-08-01T09:21:49;20.55;;;5.65;;
67363;SDS011;54250;45.572;38.086;2023-08-01T09:24:19;25.88;;;9.75;;
67363;SDS011;54250;45.572;38.086;2023-08-01T09:26:46;28.10;;;9.00;;
67363;SDS011;54250;45.572;38.086;2023-08-01T09:29:15;22.60;;;6.95;;
67363;SDS011;54250;45.572;38.086;2023-08-01T09:31:42;24.33;;;7.13;;
67363;SDS011;54250;45.572;38.086;2023-08-01T09:34:20;18.85;;;6.25;;
67363;SDS011;54250;45.572;38.086;2023-08-01T09:36:48;13.07;;;4.80;;
67363;SDS011;54250;45.572;38.086;2023-08-01T09:39:15;15.90;;;3.72;;
67363;SDS011;54250;45.572;38.086;2023-08-01T09:41:42;20.38;;;3.80;;
67363;SDS011;54250;45.572;38.086;2023-08-01T09:44:14;18.58;;;4.40;;
67363;SDS011;54250;45.572;38.086;2023-08-01T09:49:11;14.85;;;4.07;;
67363;SDS011;54250;45.572;38.086;2023-08-01T09:51:47;24.52;;;3.92;;
67363;SDS011;54250;45.572;38.086;2023-08-01T09:54:14;16.27;;;4.13;;
67363;SDS011;54250;45.572;38.086;2023-08-01T09:56:41;14.45;;;4.03;;
67363;SDS011;54250;45.572;38.086;2023-08-01T09:59:14;18.92;;;4.30;;
67363;SDS011;54250;45.572;38.086;2023-08-01T10:01:46;13.15;;;5.13;;
67363;SDS011;54250;45.572;38.086;2023-08-01T10:04:17;17.35;;;3.78;;
67363;SDS011;54250;45.572;38.086;2023-08-01T10:06:46;11.48;;;3.70;;
67363;SDS011;54250;45.572;38.086;2023-08-01T10:09:17;11.80;;;3.38;;
67363;SDS011;54250;45.572;38.086;2023-08-01T10:11:44;13.63;;;4.13;;
67363;SDS011;54250;45.572;38.086;2023-08-01T10:14:10;15.45;;;4.22;;
67363;SDS011;54250;45.572;38.086;2023-08-01T10:16:37;25.95;;;3.90;;
67363;SDS011;54250;45.572;38.086;2023-08-01T10:19:06;16.90;;;4.18;;
67363;SDS011;54250;45.572;38.086;2023-08-01T10:21:33;16.73;;;4.18;;
67363;SDS011;54250;45.572;38.086;2023-08-01T10:24:00;20.05;;;5.90;;
67363;SDS011;54250;45.572;38.086;2023-08-01T10:26:28;25.25;;;8.10;;
67363;SDS011;54250;45.572;38.086;2023-08-01T10:28:54;33.03;;;8.02;;
67363;SDS011;54250;45.572;38.086;2023-08-01T10:31:20;19.80;;;5.63;;
67363;SDS011;54250;45.572;38.086;2023-08-01T10:33:47;10.27;;;4.88;;
67363;SDS011;54250;45.572;38.086;2023-08-01T10:36:18;9.63;;;4.32;;
67363;SDS011;54250;45.572;38.086;2023-08-01T10:38:51;11.48;;;4.03;;
67363;SDS011;54250;45.572;38.086;2023-08-01T10:44:10;12.85;;;3.63;;
67363;SDS011;54250;45.572;38.086;2023-08-01T10:46:47;11.73;;;3.75;;
67363;SDS011;54250;45.572;38.086;2023-08-01T10:49:14;15.45;;;4.65;;
67363;SDS011;54250;45.572;38.086;2023-08-01T10:51:41;13.93;;;4.40;;
67363;SDS011;54250;45.572;38.086;2023-08-01T10:54:23;16.20;;;3.85;;
67363;SDS011;54250;45.572;38.086;2023-08-01T10:56:51;11.52;;;5.55;;
67363;SDS011;54250;45.572;38.086;2023-08-01T10:59:18;21.58;;;5.15;;
67363;SDS011;54250;45.572;38.086;2023-08-01T11:01:45;13.75;;;4.72;;
67363;SDS011;54250;45.572;38.086;2023-08-01T11:04:18;8.85;;;3.72;;
67363;SDS011;54250;45.572;38.086;2023-08-01T11:06:46;17.67;;;3.67;;
67363;SDS011;54250;45.572;38.086;2023-08-01T11:09:20;34.13;;;6.97;;
67363;SDS011;54250;45.572;38.086;2023-08-01T11:11:51;17.88;;;6.32;;
67363;SDS011;54250;45.572;38.086;2023-08-01T11:14:21;6.72;;;3.40;;
67363;SDS011;54250;45.572;38.086;2023-08-01T11:16:49;15.82;;;3.55;;
67363;SDS011;54250;45.572;38.086;2023-08-01T11:19:20;7.70;;;3.63;;
67363;SDS011;54250;45.572;38.086;2023-08-01T11:21:46;14.40;;;4.30;;
67363;SDS011;54250;45.572;38.086;2023-08-01T11:24:12;15.52;;;4.22;;
67363;SDS011;54250;45.572;38.086;2023-08-01T11:26:42;11.02;;;4.65;;
67363;SDS011;54250;45.572;38.086;2023-08-01T11:29:12;14.25;;;4.50;;
67363;SDS011;54250;45.572;38.086;2023-08-01T11:31:39;19.70;;;4.90;;
67363;SDS011;54250;45.572;38.086;2023-08-01T11:34:08;17.80;;;5.10;;
67363;SDS011;54250;45.572;38.086;2023-08-01T11:36:37;13.00;;;4.05;;
67363;SDS011;54250;45.572;38.086;2023-08-01T11:39:03;15.32;;;4.60;;
67363;SDS011;54250;45.572;38.086;2023-08-01T11:41:30;20.33;;;4.68;;
67363;SDS011;54250;45.572;38.086;2023-08-01T11:44:00;23.33;;;4.68;;
67363;SDS011;54250;45.572;38.086;2023-08-01T11:46:32;13.13;;;3.45;;
67363;SDS011;54250;45.572;38.086;2023-08-01T11:48:59;11.15;;;3.17;;
67363;SDS011;54250;45.572;38.086;2023-08-01T11:51:28;12.63;;;3.75;;
67363;SDS011;54250;45.572;38.086;2023-08-01T11:54:03;10.27;;;3.13;;
67363;SDS011;54250;45.572;38.086;2023-08-01T11:56:30;8.00;;;2.88;;
67363;SDS011;54250;45.572;38.086;2023-08-01T11:58:56;9.88;;;2.78;;
67363;SDS011;54250;45.572;38.086;2023-08-01T12:01:23;18.27;;;3.05;;
67363;SDS011;54250;45.572;38.086;2023-08-01T12:03:53;19.83;;;3.95;;
67363;SDS011;54250;45.572;38.086;2023-08-01T12:06:21;12.15;;;3.55;;
67363;SDS011;54250;45.572;38.086;2023-08-01T12:08:49;11.98;;;4.18;;
67363;SDS011;54250;45.572;38.086;2023-08-01T12:11:20;17.80;;;4.30;;
67363;SDS011;54250;45.572;38.086;2023-08-01T12:13:47;13.10;;;3.67;;
67363;SDS011;54250;45.572;38.086;2023-08-01T12:16:24;23.67;;;3.42;;
67363;SDS011;54250;45.572;38.086;2023-08-01T12:18:50;30.50;;;7.20;;
67363;SDS011;54250;45.572;38.086;2023-08-01T12:21:16;32.67;;;8.18;;
67363;SDS011;54250;45.572;38.086;2023-08-01T12:23:42;6.63;;;3.47;;
67363;SDS011;54250;45.572;38.086;2023-08-01T12:26:08;21.20;;;5.47;;
67363;SDS011;54250;45.572;38.086;2023-08-01T12:28:34;19.85;;;4.38;;
67363;SDS011;54250;45.572;38.086;2023-08-01T12:31:01;20.10;;;4.60;;
67363;SDS011;54250;45.572;38.086;2023-08-01T12:33:27;6.93;;;3.35;;
67363;SDS011;54250;45.572;38.086;2023-08-01T12:35:53;16.52;;;3.20;;
67363;SDS011;54250;45.572;38.086;2023-08-01T12:38:18;12.13;;;3.03;;
67363;SDS011;54250;45.572;38.086;2023-08-01T12:40:44;9.35;;;2.85;;
67363;SDS011;54250;45.572;38.086;2023-08-01T12:43:12;7.65;;;2.67;;
67363;SDS011;54250;45.572;38.086;2023-08-01T12:45:38;8.40;;;2.88;;
67363;SDS011;54250;45.572;38.086;2023-08-01T12:48:04;4.97;;;2.20;;
67363;SDS011;54250;45.572;38.086;2023-08-01T12:50:30;5.47;;;2.50;;
67363;SDS011;54250;45.572;38.086;2023-08-01T12:52:56;16.02;;;3.30;;
67363;SDS011;54250;45.572;38.086;2023-08-01T12:55:21;15.68;;;3.17;;
67363;SDS011;54250;45.572;38.086;2023-08-01T12:57:47;19.42;;;3.08;;
67363;SDS011;54250;45.572;38.086;2023-08-01T13:00:13;22.80;;;2.95;;
67363;SDS011;54250;45.572;38.086;2023-08-01T13:02:40;17.00;;;2.83;;
67363;SDS011;54250;45.572;38.086;2023-08-01T13:05:05;15.25;;;2.55;;
67363;SDS011;54250;45.572;38.086;2023-08-01T13:07:32;15.05;;;2.78;;
67363;SDS011;54250;45.572;38.086;2023-08-01T13:09:58;15.05;;;2.17;;
67363;SDS011;54250;45.572;38.086;2023-08-01T13:12:24;17.10;;;3.72;;
67363;SDS011;54250;45.572;38.086;2023-08-01T13:14:50;12.57;;;2.70;;
67363;SDS011;54250;45.572;38.086;2023-08-01T13:17:16;9.35;;;2.63;;
67363;SDS011;54250;45.572;38.086;2023-08-01T13:19:42;17.27;;;2.28;;
67363;SDS011;54250;45.572;38.086;2023-08-01T13:22:08;13.02;;;2.55;;
67363;SDS011;54250;45.572;38.086;2023-08-01T13:24:34;18.77;;;2.20;;
67363;SDS011;54250;45.572;38.086;2023-08-01T13:27:00;6.65;;;2.30;;
67363;SDS011;54250;45.572;38.086;2023-08-01T13:29:26;10.65;;;2.03;;
67363;SDS011;54250;45.572;38.086;2023-08-01T13:31:53;14.32;;;2.67;;
67363;SDS011;54250;45.572;38.086;2023-08-01T13:34:20;3.97;;;2.03;;
67363;SDS011;54250;45.572;38.086;2023-08-01T13:36:46;7.57;;;1.95;;
67363;SDS011;54250;45.572;38.086;2023-08-01T13:39:12;19.15;;;3.15;;
67363;SDS011;54250;45.572;38.086;2023-08-01T13:41:38;10.65;;;3.53;;
67363;SDS011;54250;45.572;38.086;2023-08-01T13:44:04;12.18;;;2.63;;
67363;SDS011;54250;45.572;38.086;2023-08-01T13:46:30;11.98;;;2.58;;
67363;SDS011;54250;45.572;38.086;2023-08-01T13:48:56;12.57;;;3.10;;
67363;SDS011;54250;45.572;38.086;2023-08-01T13:51:22;18.30;;;3.08;;
67363;SDS011;54250;45.572;38.086;2023-08-01T13:53:48;9.60;;;2.35;;
67363;SDS011;54250;45.572;38.086;2023-08-01T13:56:14;6.13;;;2.60;;
67363;SDS011;54250;45.572;38.086;2023-08-01T13:58:40;9.82;;;2.30;;
67363;SDS011;54250;45.572;38.086;2023-08-01T14:01:07;6.88;;;2.15;;
67363;SDS011;54250;45.572;38.086;2023-08-01T14:03:34;11.60;;;2.17;;
67363;SDS011;54250;45.572;38.086;2023-08-01T14:06:07;21.77;;;2.72;;
67363;SDS011;54250;45.572;38.086;2023-08-01T14:08:34;8.27;;;1.92;;
67363;SDS011;54250;45.572;38.086;2023-08-01T14:11:03;9.68;;;1.90;;
67363;SDS011;54250;45.572;38.086;2023-08-01T14:13:31;14.98;;;1.90;;
67363;SDS011;54250;45.572;38.086;2023-08-01T14:15:58;40.50;;;3.53;;
67363;SDS011;54250;45.572;38.086;2023-08-01T14:18:27;15.32;;;2.42;;
67363;SDS011;54250;45.572;38.086;2023-08-01T14:20:59;2.37;;;1.40;;
67363;SDS011;54250;45.572;38.086;2023-08-01T14:23:24;10.85;;;1.85;;
67363;SDS011;54250;45.572;38.086;2023-08-01T14:25:50;8.25;;;2.22;;
67363;SDS011;54250;45.572;38.086;2023-08-01T14:28:16;4.85;;;1.83;;
67363;SDS011;54250;45.572;38.086;2023-08-01T14:30:42;20.73;;;2.40;;
67363;SDS011;54250;45.572;38.086;2023-08-01T14:33:08;13.50;;;2.80;;
67363;SDS011;54250;45.572;38.086;2023-08-01T14:35:35;5.70;;;1.40;;
67363;SDS011;54250;45.572;38.086;2023-08-01T14:38:01;3.53;;;1.95;;
67363;SDS011;54250;45.572;38.086;2023-08-01T14:40:28;14.82;;;2.40;;